Scout — WDI9808 — position and weather

sailwx.info

Track history (hours):
 
Tides and Currents Weather Stations Pressure Air Temp Water Temp Dewpoint Dewpoint Depression Visibility Wind Speed Wind Dir Waves Ship Positions

Scout

Owner: Scout JAF, Ltd., Newport, RI. More information available from US FCC via Universal Licensing System and Coast Guard Vessel Documentation Center.

Last reported at 2017-Oct-04 11:45 UTC. Time now 2017-Nov-19 18:21 UTC.
Position N 44°12' W 069°04'.
Warning: this ship's position is 46 days out of date.

Length 24 m.

Type: Pleasure craft. MMSI: 367752340.

Date/timePositionNaut miles runAvg speedWind from/ knotsBaromVisibWave heightAir tempDewpointWater temp
2017-Oct-04 11:45N 44°12' W 069°04'0 0.4
2017-Oct-04 11:28N 44°13' W 069°04'0 0.0
2017-Oct-02 19:48N 44°12' W 069°03'310.7
2017-Oct-02 19:29N 44°09' W 069°04'1 2.1
2017-Oct-02 19:00N 44°10' W 069°03'3 3.1
2017-Oct-02 18:02N 44°13' W 069°04'0 0.0
2017-Oct-02 17:59N 44°13' W 069°04'1 2.6
2017-Oct-02 17:30N 44°12' W 069°02'  
2017-Sep-25 19:50N 44°13' W 069°04'0 0.0
2017-Sep-25 19:13N 44°13' W 069°04'0 0.4
2017-Sep-25 18:55N 44°12' W 069°04'10715.0
2017-Sep-25 11:50N 42°48' W 070°34'516.4
2017-Sep-25 11:30N 42°43' W 070°33'815.4
2017-Sep-25 11:00N 42°36' W 070°37'3 4.7
2017-Sep-25 10:24N 42°37' W 070°41'0 0.0
2017-Sep-24 20:38N 42°37' W 070°41'0 0.0
2017-Sep-24 20:23N 42°37' W 070°41'1 1.4
2017-Sep-24 20:00N 42°36' W 070°40'611.7
2017-Sep-24 19:30N 42°31' W 070°40'815.8
2017-Sep-24 18:59N 42°22' W 070°38'  
Track history (hours):
 
Tides and Currents Weather Stations Pressure Air Temp Water Temp Dewpoint Dewpoint Depression Visibility Wind Speed Wind Dir Waves Ship Positions

Scout

Owner: Scout JAF, Ltd., Newport, RI. More information available from US FCC via Universal Licensing System and Coast Guard Vessel Documentation Center.

Last reported at 2017-Oct-04 11:45 UTC. Time now 2017-Nov-19 18:21 UTC.
Position N 44°12' W 069°04'.
Warning: this ship's position is 46 days out of date.

Length 24 m.

Type: Pleasure craft. MMSI: 367752340.

Date/timePositionNaut miles runAvg speedWind from/ knotsBaromVisibWave heightAir tempDewpointWater temp
2017-Oct-04 11:45N 44°12' W 069°04'0 0.4
2017-Oct-04 11:28N 44°13' W 069°04'0 0.0
2017-Oct-02 19:48N 44°12' W 069°03'310.7
2017-Oct-02 19:29N 44°09' W 069°04'1 2.1
2017-Oct-02 19:00N 44°10' W 069°03'3 3.1
2017-Oct-02 18:02N 44°13' W 069°04'0 0.0
2017-Oct-02 17:59N 44°13' W 069°04'1 2.6
2017-Oct-02 17:30N 44°12' W 069°02'  
2017-Sep-25 19:50N 44°13' W 069°04'0 0.0
2017-Sep-25 19:13N 44°13' W 069°04'0 0.4
2017-Sep-25 18:55N 44°12' W 069°04'10715.0
2017-Sep-25 11:50N 42°48' W 070°34'516.4
2017-Sep-25 11:30N 42°43' W 070°33'815.4
2017-Sep-25 11:00N 42°36' W 070°37'3 4.7
2017-Sep-25 10:24N 42°37' W 070°41'0 0.0
2017-Sep-24 20:38N 42°37' W 070°41'0 0.0
2017-Sep-24 20:23N 42°37' W 070°41'1 1.4
2017-Sep-24 20:00N 42°36' W 070°40'611.7
2017-Sep-24 19:30N 42°31' W 070°40'815.8
2017-Sep-24 18:59N 42°22' W 070°38'  

Dump ship's entire track history